sensor_id;sensor_type;location;lat;lon;timestamp;P1;durP1;ratioP1;P2;durP2;ratioP2
82387;SDS011;72027;47.420;9.310;2023-12-20T00:01:36;12.70;;;7.78;;
82387;SDS011;72027;47.420;9.310;2023-12-20T00:04:03;14.32;;;7.13;;
82387;SDS011;72027;47.420;9.310;2023-12-20T00:06:31;11.10;;;6.95;;
82387;SDS011;72027;47.420;9.310;2023-12-20T00:08:59;17.73;;;7.68;;
82387;SDS011;72027;47.420;9.310;2023-12-20T00:11:28;12.38;;;6.90;;
82387;SDS011;72027;47.420;9.310;2023-12-20T00:13:56;13.63;;;8.20;;
82387;SDS011;72027;47.420;9.310;2023-12-20T00:16:24;13.68;;;7.70;;
82387;SDS011;72027;47.420;9.310;2023-12-20T00:18:52;11.57;;;7.13;;
82387;SDS011;72027;47.420;9.310;2023-12-20T00:21:19;12.10;;;7.30;;
82387;SDS011;72027;47.420;9.310;2023-12-20T00:23:47;13.27;;;7.43;;
82387;SDS011;72027;47.420;9.310;2023-12-20T00:26:15;15.40;;;7.05;;
82387;SDS011;72027;47.420;9.310;2023-12-20T00:28:44;13.68;;;8.15;;
82387;SDS011;72027;47.420;9.310;2023-12-20T00:31:12;15.93;;;7.95;;
82387;SDS011;72027;47.420;9.310;2023-12-20T00:33:42;17.13;;;9.45;;
82387;SDS011;72027;47.420;9.310;2023-12-20T00:36:10;13.70;;;8.05;;
82387;SDS011;72027;47.420;9.310;2023-12-20T00:38:38;13.90;;;8.38;;
82387;SDS011;72027;47.420;9.310;2023-12-20T00:41:06;15.02;;;7.93;;
82387;SDS011;72027;47.420;9.310;2023-12-20T00:43:34;15.52;;;8.38;;
82387;SDS011;72027;47.420;9.310;2023-12-20T00:46:03;15.30;;;8.32;;
82387;SDS011;72027;47.420;9.310;2023-12-20T00:48:30;12.95;;;8.02;;
82387;SDS011;72027;47.420;9.310;2023-12-20T00:50:58;14.55;;;7.80;;
82387;SDS011;72027;47.420;9.310;2023-12-20T00:53:26;14.68;;;8.55;;
82387;SDS011;72027;47.420;9.310;2023-12-20T00:55:54;13.48;;;8.85;;
82387;SDS011;72027;47.420;9.310;2023-12-20T00:58:21;16.45;;;9.00;;
82387;SDS011;72027;47.420;9.310;2023-12-20T01:00:49;16.00;;;9.35;;
82387;SDS011;72027;47.420;9.310;2023-12-20T01:03:19;22.30;;;9.00;;
82387;SDS011;72027;47.420;9.310;2023-12-20T01:05:46;22.42;;;10.88;;
82387;SDS011;72027;47.420;9.310;2023-12-20T01:08:14;18.92;;;9.98;;
82387;SDS011;72027;47.420;9.310;2023-12-20T01:10:42;18.50;;;9.35;;
82387;SDS011;72027;47.420;9.310;2023-12-20T01:13:10;16.02;;;8.48;;
82387;SDS011;72027;47.420;9.310;2023-12-20T01:15:37;19.27;;;9.00;;
82387;SDS011;72027;47.420;9.310;2023-12-20T01:18:05;18.20;;;8.32;;
82387;SDS011;72027;47.420;9.310;2023-12-20T01:20:34;18.25;;;9.18;;
82387;SDS011;72027;47.420;9.310;2023-12-20T01:23:02;19.65;;;9.93;;
82387;SDS011;72027;47.420;9.310;2023-12-20T01:25:30;15.93;;;8.38;;
82387;SDS011;72027;47.420;9.310;2023-12-20T01:27:58;19.17;;;9.18;;
82387;SDS011;72027;47.420;9.310;2023-12-20T01:30:25;16.27;;;10.27;;
82387;SDS011;72027;47.420;9.310;2023-12-20T01:32:53;16.75;;;8.55;;
82387;SDS011;72027;47.420;9.310;2023-12-20T01:35:21;14.05;;;8.43;;
82387;SDS011;72027;47.420;9.310;2023-12-20T01:37:50;18.88;;;8.25;;
82387;SDS011;72027;47.420;9.310;2023-12-20T01:40:19;13.38;;;8.13;;
82387;SDS011;72027;47.420;9.310;2023-12-20T01:42:47;25.80;;;10.93;;
82387;SDS011;72027;47.420;9.310;2023-12-20T01:45:14;15.55;;;8.05;;
82387;SDS011;72027;47.420;9.310;2023-12-20T01:47:42;13.80;;;7.95;;
82387;SDS011;72027;47.420;9.310;2023-12-20T01:50:10;14.82;;;8.05;;
82387;SDS011;72027;47.420;9.310;2023-12-20T01:52:38;13.98;;;7.40;;
82387;SDS011;72027;47.420;9.310;2023-12-20T01:55:07;13.02;;;8.15;;
82387;SDS011;72027;47.420;9.310;2023-12-20T01:57:39;16.15;;;8.70;;
82387;SDS011;72027;47.420;9.310;2023-12-20T02:00:08;14.88;;;9.10;;
82387;SDS011;72027;47.420;9.310;2023-12-20T02:02:39;12.63;;;7.18;;
82387;SDS011;72027;47.420;9.310;2023-12-20T02:05:07;14.93;;;8.00;;
82387;SDS011;72027;47.420;9.310;2023-12-20T02:07:36;15.60;;;7.05;;
82387;SDS011;72027;47.420;9.310;2023-12-20T02:10:04;12.57;;;7.07;;
82387;SDS011;72027;47.420;9.310;2023-12-20T02:12:34;12.32;;;7.15;;
82387;SDS011;72027;47.420;9.310;2023-12-20T02:15:02;12.18;;;7.60;;
82387;SDS011;72027;47.420;9.310;2023-12-20T02:17:30;12.55;;;7.13;;
82387;SDS011;72027;47.420;9.310;2023-12-20T02:19:59;11.90;;;6.88;;
82387;SDS011;72027;47.420;9.310;2023-12-20T02:22:28;11.30;;;6.68;;
82387;SDS011;72027;47.420;9.310;2023-12-20T02:24:56;12.02;;;6.68;;
82387;SDS011;72027;47.420;9.310;2023-12-20T02:27:24;10.40;;;5.68;;
82387;SDS011;72027;47.420;9.310;2023-12-20T02:29:52;14.38;;;6.38;;
82387;SDS011;72027;47.420;9.310;2023-12-20T02:32:19;11.65;;;6.57;;
82387;SDS011;72027;47.420;9.310;2023-12-20T02:34:48;13.00;;;6.47;;
82387;SDS011;72027;47.420;9.310;2023-12-20T02:37:16;12.32;;;6.50;;
82387;SDS011;72027;47.420;9.310;2023-12-20T02:39:45;10.65;;;5.45;;
82387;SDS011;72027;47.420;9.310;2023-12-20T02:42:13;12.05;;;5.82;;
82387;SDS011;72027;47.420;9.310;2023-12-20T02:44:40;10.60;;;5.75;;
82387;SDS011;72027;47.420;9.310;2023-12-20T02:47:08;8.25;;;4.78;;
82387;SDS011;72027;47.420;9.310;2023-12-20T02:49:36;12.18;;;5.82;;
82387;SDS011;72027;47.420;9.310;2023-12-20T02:52:04;13.18;;;4.30;;
82387;SDS011;72027;47.420;9.310;2023-12-20T02:54:32;8.30;;;3.88;;
82387;SDS011;72027;47.420;9.310;2023-12-20T02:57:01;6.68;;;3.80;;
82387;SDS011;72027;47.420;9.310;2023-12-20T02:59:29;11.85;;;4.10;;
82387;SDS011;72027;47.420;9.310;2023-12-20T03:01:57;5.10;;;3.03;;
82387;SDS011;72027;47.420;9.310;2023-12-20T03:04:25;4.93;;;3.03;;
82387;SDS011;72027;47.420;9.310;2023-12-20T03:06:53;6.82;;;2.92;;
82387;SDS011;72027;47.420;9.310;2023-12-20T03:09:21;7.90;;;3.67;;
82387;SDS011;72027;47.420;9.310;2023-12-20T03:11:48;4.70;;;3.15;;
82387;SDS011;72027;47.420;9.310;2023-12-20T03:14:17;6.72;;;3.72;;
82387;SDS011;72027;47.420;9.310;2023-12-20T03:16:46;3.45;;;2.70;;
82387;SDS011;72027;47.420;9.310;2023-12-20T03:19:14;4.25;;;2.88;;
82387;SDS011;72027;47.420;9.310;2023-12-20T03:21:42;6.28;;;2.53;;
82387;SDS011;72027;47.420;9.310;2023-12-20T03:24:10;4.13;;;2.45;;
82387;SDS011;72027;47.420;9.310;2023-12-20T03:26:38;4.30;;;2.40;;
82387;SDS011;72027;47.420;9.310;2023-12-20T03:29:06;5.57;;;2.92;;
82387;SDS011;72027;47.420;9.310;2023-12-20T03:31:35;3.63;;;2.40;;
82387;SDS011;72027;47.420;9.310;2023-12-20T03:34:03;3.78;;;2.63;;
82387;SDS011;72027;47.420;9.310;2023-12-20T03:36:30;3.45;;;1.77;;
82387;SDS011;72027;47.420;9.310;2023-12-20T03:38:58;4.03;;;2.10;;
82387;SDS011;72027;47.420;9.310;2023-12-20T03:41:26;3.00;;;2.05;;
82387;SDS011;72027;47.420;9.310;2023-12-20T03:43:54;2.78;;;2.08;;
82387;SDS011;72027;47.420;9.310;2023-12-20T03:46:21;4.53;;;2.53;;
82387;SDS011;72027;47.420;9.310;2023-12-20T03:48:51;3.30;;;2.10;;
82387;SDS011;72027;47.420;9.310;2023-12-20T03:51:18;4.60;;;1.90;;
82387;SDS011;72027;47.420;9.310;2023-12-20T03:53:46;2.65;;;1.98;;
82387;SDS011;72027;47.420;9.310;2023-12-20T03:56:14;3.70;;;2.53;;
82387;SDS011;72027;47.420;9.310;2023-12-20T03:58:42;5.72;;;3.00;;
82387;SDS011;72027;47.420;9.310;2023-12-20T04:01:09;3.88;;;2.92;;
82387;SDS011;72027;47.420;9.310;2023-12-20T04:03:38;3.85;;;2.58;;
82387;SDS011;72027;47.420;9.310;2023-12-20T04:06:08;4.47;;;2.70;;
82387;SDS011;72027;47.420;9.310;2023-12-20T04:08:36;5.28;;;2.42;;
82387;SDS011;72027;47.420;9.310;2023-12-20T04:11:03;3.30;;;2.53;;
82387;SDS011;72027;47.420;9.310;2023-12-20T04:13:31;3.58;;;2.42;;
82387;SDS011;72027;47.420;9.310;2023-12-20T04:15:59;8.85;;;3.35;;
82387;SDS011;72027;47.420;9.310;2023-12-20T04:18:27;3.78;;;2.75;;
82387;SDS011;72027;47.420;9.310;2023-12-20T04:20:55;4.82;;;3.10;;
82387;SDS011;72027;47.420;9.310;2023-12-20T04:23:24;4.90;;;2.80;;
82387;SDS011;72027;47.420;9.310;2023-12-20T04:25:52;5.63;;;3.08;;
82387;SDS011;72027;47.420;9.310;2023-12-20T04:28:20;6.28;;;2.70;;
82387;SDS011;72027;47.420;9.310;2023-12-20T04:30:48;6.47;;;3.25;;
82387;SDS011;72027;47.420;9.310;2023-12-20T04:33:16;4.68;;;2.92;;
82387;SDS011;72027;47.420;9.310;2023-12-20T04:35:43;6.25;;;3.03;;
82387;SDS011;72027;47.420;9.310;2023-12-20T04:38:12;6.05;;;3.97;;
82387;SDS011;72027;47.420;9.310;2023-12-20T04:40:41;7.85;;;3.33;;
82387;SDS011;72027;47.420;9.310;2023-12-20T04:43:09;7.15;;;3.00;;
82387;SDS011;72027;47.420;9.310;2023-12-20T04:45:36;4.00;;;2.80;;
82387;SDS011;72027;47.420;9.310;2023-12-20T04:48:05;4.30;;;2.85;;
82387;SDS011;72027;47.420;9.310;2023-12-20T04:50:33;5.45;;;3.10;;
82387;SDS011;72027;47.420;9.310;2023-12-20T04:53:01;5.35;;;3.00;;
82387;SDS011;72027;47.420;9.310;2023-12-20T04:55:28;3.83;;;2.67;;
82387;SDS011;72027;47.420;9.310;2023-12-20T04:57:58;4.38;;;2.97;;
82387;SDS011;72027;47.420;9.310;2023-12-20T05:00:26;4.72;;;3.05;;
82387;SDS011;72027;47.420;9.310;2023-12-20T05:02:54;5.65;;;3.40;;
82387;SDS011;72027;47.420;9.310;2023-12-20T05:05:21;4.93;;;3.38;;
82387;SDS011;72027;47.420;9.310;2023-12-20T05:07:49;6.32;;;2.65;;
82387;SDS011;72027;47.420;9.310;2023-12-20T05:10:19;6.78;;;3.47;;
82387;SDS011;72027;47.420;9.310;2023-12-20T05:12:46;6.32;;;3.85;;
82387;SDS011;72027;47.420;9.310;2023-12-20T05:15:15;4.53;;;3.42;;
82387;SDS011;72027;47.420;9.310;2023-12-20T05:17:43;2.92;;;2.45;;
82387;SDS011;72027;47.420;9.310;2023-12-20T05:20:12;6.93;;;3.10;;
82387;SDS011;72027;47.420;9.310;2023-12-20T05:22:40;4.20;;;2.47;;
82387;SDS011;72027;47.420;9.310;2023-12-20T05:25:08;6.40;;;2.97;;
82387;SDS011;72027;47.420;9.310;2023-12-20T05:27:36;5.60;;;2.97;;
82387;SDS011;72027;47.420;9.310;2023-12-20T05:30:04;4.13;;;2.50;;
82387;SDS011;72027;47.420;9.310;2023-12-20T05:32:34;5.13;;;3.00;;
82387;SDS011;72027;47.420;9.310;2023-12-20T05:35:02;4.50;;;3.08;;
82387;SDS011;72027;47.420;9.310;2023-12-20T05:37:30;4.10;;;2.65;;
82387;SDS011;72027;47.420;9.310;2023-12-20T05:39:58;4.57;;;3.28;;
82387;SDS011;72027;47.420;9.310;2023-12-20T05:42:26;8.43;;;4.35;;
82387;SDS011;72027;47.420;9.310;2023-12-20T05:44:54;5.60;;;3.17;;
82387;SDS011;72027;47.420;9.310;2023-12-20T05:47:24;3.75;;;2.25;;
82387;SDS011;72027;47.420;9.310;2023-12-20T05:49:53;7.20;;;3.15;;
82387;SDS011;72027;47.420;9.310;2023-12-20T05:52:21;5.95;;;2.95;;
82387;SDS011;72027;47.420;9.310;2023-12-20T05:54:49;3.83;;;3.13;;
82387;SDS011;72027;47.420;9.310;2023-12-20T05:57:16;5.40;;;2.88;;
82387;SDS011;72027;47.420;9.310;2023-12-20T05:59:44;4.13;;;2.33;;
82387;SDS011;72027;47.420;9.310;2023-12-20T06:02:12;3.03;;;1.73;;
82387;SDS011;72027;47.420;9.310;2023-12-20T06:04:41;5.60;;;1.80;;
82387;SDS011;72027;47.420;9.310;2023-12-20T06:07:12;3.55;;;1.52;;
82387;SDS011;72027;47.420;9.310;2023-12-20T06:09:40;3.15;;;1.20;;
82387;SDS011;72027;47.420;9.310;2023-12-20T06:12:08;2.53;;;1.40;;
82387;SDS011;72027;47.420;9.310;2023-12-20T06:14:36;2.47;;;1.33;;
82387;SDS011;72027;47.420;9.310;2023-12-20T06:17:04;1.92;;;1.58;;
82387;SDS011;72027;47.420;9.310;2023-12-20T06:19:32;1.77;;;1.40;;
82387;SDS011;72027;47.420;9.310;2023-12-20T06:22:00;4.10;;;2.10;;
82387;SDS011;72027;47.420;9.310;2023-12-20T06:24:29;2.70;;;1.88;;
82387;SDS011;72027;47.420;9.310;2023-12-20T06:26:56;3.15;;;2.00;;
82387;SDS011;72027;47.420;9.310;2023-12-20T06:29:24;2.85;;;2.13;;
82387;SDS011;72027;47.420;9.310;2023-12-20T06:31:52;2.55;;;1.95;;
82387;SDS011;72027;47.420;9.310;2023-12-20T06:34:20;2.75;;;1.83;;
82387;SDS011;72027;47.420;9.310;2023-12-20T06:36:48;2.75;;;1.80;;
82387;SDS011;72027;47.420;9.310;2023-12-20T06:39:15;4.80;;;2.80;;
82387;SDS011;72027;47.420;9.310;2023-12-20T06:41:44;5.57;;;2.42;;
82387;SDS011;72027;47.420;9.310;2023-12-20T06:44:12;5.50;;;2.10;;
82387;SDS011;72027;47.420;9.310;2023-12-20T06:46:40;2.63;;;2.13;;
82387;SDS011;72027;47.420;9.310;2023-12-20T06:49:08;5.70;;;2.30;;
82387;SDS011;72027;47.420;9.310;2023-12-20T06:51:36;3.03;;;1.92;;
82387;SDS011;72027;47.420;9.310;2023-12-20T06:54:04;3.08;;;1.90;;
82387;SDS011;72027;47.420;9.310;2023-12-20T06:56:32;3.35;;;2.20;;
82387;SDS011;72027;47.420;9.310;2023-12-20T06:59:01;3.50;;;2.20;;
82387;SDS011;72027;47.420;9.310;2023-12-20T07:01:28;3.28;;;2.17;;
82387;SDS011;72027;47.420;9.310;2023-12-20T07:03:56;3.08;;;2.17;;
82387;SDS011;72027;47.420;9.310;2023-12-20T07:06:24;5.78;;;1.73;;
82387;SDS011;72027;47.420;9.310;2023-12-20T07:08:52;3.90;;;1.73;;
82387;SDS011;72027;47.420;9.310;2023-12-20T07:11:20;2.38;;;1.80;;
82387;SDS011;72027;47.420;9.310;2023-12-20T07:13:48;2.17;;;1.55;;
82387;SDS011;72027;47.420;9.310;2023-12-20T07:16:17;2.95;;;1.92;;
82387;SDS011;72027;47.420;9.310;2023-12-20T07:18:45;2.45;;;1.75;;
82387;SDS011;72027;47.420;9.310;2023-12-20T07:21:13;1.65;;;1.48;;
82387;SDS011;72027;47.420;9.310;2023-12-20T07:23:42;2.00;;;1.70;;
82387;SDS011;72027;47.420;9.310;2023-12-20T07:26:09;4.07;;;1.83;;
82387;SDS011;72027;47.420;9.310;2023-12-20T07:28:37;3.00;;;2.03;;
82387;SDS011;72027;47.420;9.310;2023-12-20T07:31:05;2.03;;;1.70;;
82387;SDS011;72027;47.420;9.310;2023-12-20T07:33:35;2.67;;;1.92;;
82387;SDS011;72027;47.420;9.310;2023-12-20T07:36:04;2.17;;;1.55;;
82387;SDS011;72027;47.420;9.310;2023-12-20T07:38:32;1.98;;;1.45;;
82387;SDS011;72027;47.420;9.310;2023-12-20T07:41:00;7.28;;;2.00;;
82387;SDS011;72027;47.420;9.310;2023-12-20T07:43:28;2.13;;;1.35;;
82387;SDS011;72027;47.420;9.310;2023-12-20T07:45:56;2.65;;;1.30;;
82387;SDS011;72027;47.420;9.310;2023-12-20T07:48:24;1.48;;;1.20;;
82387;SDS011;72027;47.420;9.310;2023-12-20T07:50:53;1.33;;;1.23;;
82387;SDS011;72027;47.420;9.310;2023-12-20T07:53:20;1.83;;;1.20;;
82387;SDS011;72027;47.420;9.310;2023-12-20T07:55:48;2.08;;;1.35;;
82387;SDS011;72027;47.420;9.310;2023-12-20T07:58:16;1.08;;;0.98;;
82387;SDS011;72027;47.420;9.310;2023-12-20T08:00:44;2.00;;;1.50;;
82387;SDS011;72027;47.420;9.310;2023-12-20T08:03:11;1.33;;;1.08;;
82387;SDS011;72027;47.420;9.310;2023-12-20T08:05:39;1.30;;;1.10;;
82387;SDS011;72027;47.420;9.310;2023-12-20T08:08:08;2.38;;;1.00;;
82387;SDS011;72027;47.420;9.310;2023-12-20T08:10:36;2.17;;;1.00;;
82387;SDS011;72027;47.420;9.310;2023-12-20T08:13:04;1.75;;;1.10;;
82387;SDS011;72027;47.420;9.310;2023-12-20T08:15:32;2.55;;;0.98;;
82387;SDS011;72027;47.420;9.310;2023-12-20T08:18:00;3.33;;;1.95;;
82387;SDS011;72027;47.420;9.310;2023-12-20T08:20:27;1.30;;;0.90;;
82387;SDS011;72027;47.420;9.310;2023-12-20T08:22:58;1.80;;;1.30;;
82387;SDS011;72027;47.420;9.310;2023-12-20T08:25:28;1.15;;;0.82;;
82387;SDS011;72027;47.420;9.310;2023-12-20T08:27:56;1.10;;;1.00;;
82387;SDS011;72027;47.420;9.310;2023-12-20T08:30:23;3.75;;;1.20;;
82387;SDS011;72027;47.420;9.310;2023-12-20T08:32:51;4.47;;;1.42;;
82387;SDS011;72027;47.420;9.310;2023-12-20T08:35:19;1.63;;;1.05;;
82387;SDS011;72027;47.420;9.310;2023-12-20T08:37:47;1.10;;;1.00;;
82387;SDS011;72027;47.420;9.310;2023-12-20T08:40:15;1.27;;;0.90;;
82387;SDS011;72027;47.420;9.310;2023-12-20T08:42:44;2.45;;;1.45;;
82387;SDS011;72027;47.420;9.310;2023-12-20T08:45:11;1.42;;;0.90;;
82387;SDS011;72027;47.420;9.310;2023-12-20T08:47:39;1.23;;;1.08;;
82387;SDS011;72027;47.420;9.310;2023-12-20T08:50:07;1.48;;;1.15;;
82387;SDS011;72027;47.420;9.310;2023-12-20T08:52:35;1.52;;;0.82;;
82387;SDS011;72027;47.420;9.310;2023-12-20T08:55:03;1.35;;;1.17;;
82387;SDS011;72027;47.420;9.310;2023-12-20T08:57:32;1.48;;;0.90;;
82387;SDS011;72027;47.420;9.310;2023-12-20T09:00:01;5.03;;;0.93;;
82387;SDS011;72027;47.420;9.310;2023-12-20T09:02:32;1.13;;;1.02;;
82387;SDS011;72027;47.420;9.310;2023-12-20T09:05:02;1.30;;;1.20;;
82387;SDS011;72027;47.420;9.310;2023-12-20T09:07:30;1.27;;;1.02;;
82387;SDS011;72027;47.420;9.310;2023-12-20T09:09:58;1.83;;;1.08;;
82387;SDS011;72027;47.420;9.310;2023-12-20T09:12:26;2.78;;;1.60;;
82387;SDS011;72027;47.420;9.310;2023-12-20T09:14:54;1.60;;;1.35;;
82387;SDS011;72027;47.420;9.310;2023-12-20T09:17:23;2.40;;;1.60;;
82387;SDS011;72027;47.420;9.310;2023-12-20T09:19:52;2.88;;;1.10;;
82387;SDS011;72027;47.420;9.310;2023-12-20T09:22:20;2.20;;;1.30;;
82387;SDS011;72027;47.420;9.310;2023-12-20T09:24:48;0.90;;;0.90;;
82387;SDS011;72027;47.420;9.310;2023-12-20T09:27:16;1.65;;;1.30;;
82387;SDS011;72027;47.420;9.310;2023-12-20T09:29:44;1.73;;;1.00;;
82387;SDS011;72027;47.420;9.310;2023-12-20T09:32:11;0.80;;;0.80;;
82387;SDS011;72027;47.420;9.310;2023-12-20T09:34:40;1.67;;;1.25;;
82387;SDS011;72027;47.420;9.310;2023-12-20T09:37:09;1.60;;;1.17;;
82387;SDS011;72027;47.420;9.310;2023-12-20T09:39:36;1.08;;;0.90;;
82387;SDS011;72027;47.420;9.310;2023-12-20T09:42:05;1.48;;;1.17;;
82387;SDS011;72027;47.420;9.310;2023-12-20T09:44:33;4.97;;;1.08;;
82387;SDS011;72027;47.420;9.310;2023-12-20T09:47:02;0.80;;;0.80;;
82387;SDS011;72027;47.420;9.310;2023-12-20T09:49:30;1.10;;;0.85;;
82387;SDS011;72027;47.420;9.310;2023-12-20T09:52:01;1.33;;;0.90;;
82387;SDS011;72027;47.420;9.310;2023-12-20T09:54:32;1.27;;;0.75;;
82387;SDS011;72027;47.420;9.310;2023-12-20T09:57:00;0.80;;;0.75;;
82387;SDS011;72027;47.420;9.310;2023-12-20T09:59:27;2.08;;;0.90;;
82387;SDS011;72027;47.420;9.310;2023-12-20T10:01:55;0.65;;;0.63;;
82387;SDS011;72027;47.420;9.310;2023-12-20T10:04:24;3.95;;;1.00;;
82387;SDS011;72027;47.420;9.310;2023-12-20T10:06:55;2.00;;;1.30;;
82387;SDS011;72027;47.420;9.310;2023-12-20T10:09:24;1.13;;;0.82;;
82387;SDS011;72027;47.420;9.310;2023-12-20T10:11:54;1.73;;;1.00;;
82387;SDS011;72027;47.420;9.310;2023-12-20T10:14:23;0.77;;;0.70;;
82387;SDS011;72027;47.420;9.310;2023-12-20T10:16:51;1.67;;;0.73;;
82387;SDS011;72027;47.420;9.310;2023-12-20T10:19:19;1.67;;;0.90;;
82387;SDS011;72027;47.420;9.310;2023-12-20T10:21:47;0.98;;;0.75;;
82387;SDS011;72027;47.420;9.310;2023-12-20T10:24:16;1.42;;;0.65;;
82387;SDS011;72027;47.420;9.310;2023-12-20T10:26:46;0.85;;;0.82;;
82387;SDS011;72027;47.420;9.310;2023-12-20T10:29:14;1.48;;;0.95;;
82387;SDS011;72027;47.420;9.310;2023-12-20T10:31:41;2.60;;;0.95;;
82387;SDS011;72027;47.420;9.310;2023-12-20T10:34:11;3.85;;;1.95;;
82387;SDS011;72027;47.420;9.310;2023-12-20T10:36:39;4.30;;;1.10;;
82387;SDS011;72027;47.420;9.310;2023-12-20T10:39:07;1.42;;;0.73;;
82387;SDS011;72027;47.420;9.310;2023-12-20T10:41:38;1.83;;;1.25;;
82387;SDS011;72027;47.420;9.310;2023-12-20T10:44:09;3.63;;;1.00;;
82387;SDS011;72027;47.420;9.310;2023-12-20T10:46:38;1.80;;;1.40;;
82387;SDS011;72027;47.420;9.310;2023-12-20T10:49:07;1.20;;;1.02;;
82387;SDS011;72027;47.420;9.310;2023-12-20T10:51:37;1.55;;;0.80;;
82387;SDS011;72027;47.420;9.310;2023-12-20T10:54:05;0.80;;;0.80;;
82387;SDS011;72027;47.420;9.310;2023-12-20T10:56:35;1.77;;;1.35;;
82387;SDS011;72027;47.420;9.310;2023-12-20T10:59:05;7.22;;;1.15;;
82387;SDS011;72027;47.420;9.310;2023-12-20T11:01:38;1.10;;;1.00;;
82387;SDS011;72027;47.420;9.310;2023-12-20T11:04:08;1.67;;;1.33;;
82387;SDS011;72027;47.420;9.310;2023-12-20T11:06:45;3.90;;;1.23;;
82387;SDS011;72027;47.420;9.310;2023-12-20T11:09:19;2.22;;;1.13;;
82387;SDS011;72027;47.420;9.310;2023-12-20T11:12:02;2.40;;;1.40;;
82387;SDS011;72027;47.420;9.310;2023-12-20T11:14:39;4.32;;;1.40;;
82387;SDS011;72027;47.420;9.310;2023-12-20T11:17:11;1.77;;;1.42;;
82387;SDS011;72027;47.420;9.310;2023-12-20T11:22:33;1.50;;;1.33;;
82387;SDS011;72027;47.420;9.310;2023-12-20T11:25:04;1.60;;;1.27;;
82387;SDS011;72027;47.420;9.310;2023-12-20T11:27:34;1.70;;;1.38;;
82387;SDS011;72027;47.420;9.310;2023-12-20T11:30:04;1.20;;;1.10;;
82387;SDS011;72027;47.420;9.310;2023-12-20T11:32:35;2.38;;;1.17;;
82387;SDS011;72027;47.420;9.310;2023-12-20T11:35:16;1.27;;;1.00;;
82387;SDS011;72027;47.420;9.310;2023-12-20T11:37:46;2.15;;;1.33;;
82387;SDS011;72027;47.420;9.310;2023-12-20T11:40:15;3.10;;;0.90;;
82387;SDS011;72027;47.420;9.310;2023-12-20T11:42:45;2.90;;;1.08;;
82387;SDS011;72027;47.420;9.310;2023-12-20T11:45:16;1.63;;;1.10;;
82387;SDS011;72027;47.420;9.310;2023-12-20T11:47:47;0.85;;;0.77;;
82387;SDS011;72027;47.420;9.310;2023-12-20T11:50:17;3.88;;;2.00;;
82387;SDS011;72027;47.420;9.310;2023-12-20T11:52:45;1.00;;;0.75;;
82387;SDS011;72027;47.420;9.310;2023-12-20T11:55:13;1.80;;;1.52;;
82387;SDS011;72027;47.420;9.310;2023-12-20T11:57:41;1.20;;;1.00;;
82387;SDS011;72027;47.420;9.310;2023-12-20T12:00:10;2.47;;;1.70;;
82387;SDS011;72027;47.420;9.310;2023-12-20T12:02:39;1.85;;;1.15;;
82387;SDS011;72027;47.420;9.310;2023-12-20T12:05:08;2.22;;;1.60;;
82387;SDS011;72027;47.420;9.310;2023-12-20T12:07:37;5.40;;;2.58;;
82387;SDS011;72027;47.420;9.310;2023-12-20T12:10:05;4.53;;;2.47;;
82387;SDS011;72027;47.420;9.310;2023-12-20T12:12:34;8.45;;;4.30;;
82387;SDS011;72027;47.420;9.310;2023-12-20T12:15:02;8.18;;;2.60;;
82387;SDS011;72027;47.420;9.310;2023-12-20T12:17:30;7.95;;;3.78;;
82387;SDS011;72027;47.420;9.310;2023-12-20T12:20:04;6.80;;;3.10;;
82387;SDS011;72027;47.420;9.310;2023-12-20T12:22:34;3.63;;;2.30;;
82387;SDS011;72027;47.420;9.310;2023-12-20T12:25:09;1.60;;;1.50;;
82387;SDS011;72027;47.420;9.310;2023-12-20T12:27:39;2.15;;;1.80;;
82387;SDS011;72027;47.420;9.310;2023-12-20T12:30:08;2.88;;;2.20;;
82387;SDS011;72027;47.420;9.310;2023-12-20T12:32:39;19.17;;;7.18;;
82387;SDS011;72027;47.420;9.310;2023-12-20T12:35:08;3.95;;;2.60;;
82387;SDS011;72027;47.420;9.310;2023-12-20T12:37:38;2.30;;;2.10;;
82387;SDS011;72027;47.420;9.310;2023-12-20T12:40:09;2.35;;;2.10;;
82387;SDS011;72027;47.420;9.310;2023-12-20T12:42:38;2.53;;;2.13;;
82387;SDS011;72027;47.420;9.310;2023-12-20T12:45:07;2.40;;;1.92;;
82387;SDS011;72027;47.420;9.310;2023-12-20T12:47:36;2.95;;;2.55;;
82387;SDS011;72027;47.420;9.310;2023-12-20T12:50:04;3.03;;;2.33;;
82387;SDS011;72027;47.420;9.310;2023-12-20T12:52:32;2.83;;;1.70;;
82387;SDS011;72027;47.420;9.310;2023-12-20T12:55:03;5.75;;;2.85;;
82387;SDS011;72027;47.420;9.310;2023-12-20T12:57:31;7.20;;;2.78;;
82387;SDS011;72027;47.420;9.310;2023-12-20T13:00:00;3.13;;;2.25;;
82387;SDS011;72027;47.420;9.310;2023-12-20T13:02:29;3.60;;;2.38;;
82387;SDS011;72027;47.420;9.310;2023-12-20T13:04:57;2.63;;;2.25;;
82387;SDS011;72027;47.420;9.310;2023-12-20T13:07:25;4.05;;;3.03;;
82387;SDS011;72027;47.420;9.310;2023-12-20T13:09:53;4.22;;;3.20;;
82387;SDS011;72027;47.420;9.310;2023-12-20T13:12:22;4.72;;;3.63;;
82387;SDS011;72027;47.420;9.310;2023-12-20T13:14:50;6.65;;;3.70;;
82387;SDS011;72027;47.420;9.310;2023-12-20T13:17:18;5.47;;;4.00;;
82387;SDS011;72027;47.420;9.310;2023-12-20T13:19:46;5.15;;;3.47;;
82387;SDS011;72027;47.420;9.310;2023-12-20T13:22:14;5.32;;;3.97;;
82387;SDS011;72027;47.420;9.310;2023-12-20T13:24:42;5.88;;;4.25;;
82387;SDS011;72027;47.420;9.310;2023-12-20T13:27:11;6.82;;;3.78;;
82387;SDS011;72027;47.420;9.310;2023-12-20T13:29:40;4.15;;;3.35;;
82387;SDS011;72027;47.420;9.310;2023-12-20T13:32:07;5.55;;;3.65;;
82387;SDS011;72027;47.420;9.310;2023-12-20T13:34:35;4.55;;;3.78;;
82387;SDS011;72027;47.420;9.310;2023-12-20T13:37:03;4.30;;;3.60;;
82387;SDS011;72027;47.420;9.310;2023-12-20T13:39:31;4.15;;;3.05;;
82387;SDS011;72027;47.420;9.310;2023-12-20T13:41:59;4.63;;;3.38;;
82387;SDS011;72027;47.420;9.310;2023-12-20T13:44:27;3.55;;;2.55;;
82387;SDS011;72027;47.420;9.310;2023-12-20T13:46:56;8.38;;;4.55;;
82387;SDS011;72027;47.420;9.310;2023-12-20T13:49:24;6.95;;;2.90;;
82387;SDS011;72027;47.420;9.310;2023-12-20T13:51:52;14.07;;;6.47;;
82387;SDS011;72027;47.420;9.310;2023-12-20T13:54:21;3.67;;;2.78;;
82387;SDS011;72027;47.420;9.310;2023-12-20T13:56:49;4.05;;;2.45;;
82387;SDS011;72027;47.420;9.310;2023-12-20T13:59:22;3.20;;;2.60;;
82387;SDS011;72027;47.420;9.310;2023-12-20T14:01:50;6.50;;;4.38;;
82387;SDS011;72027;47.420;9.310;2023-12-20T14:04:20;8.68;;;7.30;;
82387;SDS011;72027;47.420;9.310;2023-12-20T14:07:04;6.43;;;2.50;;
82387;SDS011;72027;47.420;9.310;2023-12-20T14:09:34;7.45;;;4.35;;
82387;SDS011;72027;47.420;9.310;2023-12-20T14:12:02;2.97;;;2.38;;
82387;SDS011;72027;47.420;9.310;2023-12-20T14:14:30;6.40;;;5.07;;
82387;SDS011;72027;47.420;9.310;2023-12-20T14:16:57;3.42;;;2.38;;
82387;SDS011;72027;47.420;9.310;2023-12-20T14:19:26;3.97;;;2.13;;
82387;SDS011;72027;47.420;9.310;2023-12-20T14:21:54;3.30;;;2.72;;
82387;SDS011;72027;47.420;9.310;2023-12-20T14:24:22;3.65;;;3.15;;
82387;SDS011;72027;47.420;9.310;2023-12-20T14:26:51;4.82;;;3.72;;
82387;SDS011;72027;47.420;9.310;2023-12-20T14:29:19;3.42;;;2.53;;
82387;SDS011;72027;47.420;9.310;2023-12-20T14:31:48;3.25;;;2.38;;
82387;SDS011;72027;47.420;9.310;2023-12-20T14:34:16;2.00;;;1.80;;
82387;SDS011;72027;47.420;9.310;2023-12-20T14:36:45;3.28;;;2.78;;
82387;SDS011;72027;47.420;9.310;2023-12-20T14:39:13;2.22;;;1.85;;
82387;SDS011;72027;47.420;9.310;2023-12-20T14:41:41;2.83;;;2.10;;
82387;SDS011;72027;47.420;9.310;2023-12-20T14:44:09;2.58;;;2.08;;
82387;SDS011;72027;47.420;9.310;2023-12-20T14:46:37;2.63;;;2.30;;
82387;SDS011;72027;47.420;9.310;2023-12-20T14:49:07;2.85;;;2.03;;
82387;SDS011;72027;47.420;9.310;2023-12-20T14:51:35;4.10;;;1.88;;
82387;SDS011;72027;47.420;9.310;2023-12-20T14:54:05;4.40;;;1.98;;
82387;SDS011;72027;47.420;9.310;2023-12-20T14:56:34;2.50;;;1.70;;